sensor_id;sensor_type;location;lat;lon;timestamp;temperature;humidity
20492;DHT22;10404;51.468;6.762;2023-04-24T00:02:14;12.50;63.70
20492;DHT22;10404;51.468;6.762;2023-04-24T00:04:40;12.50;63.80
20492;DHT22;10404;51.468;6.762;2023-04-24T00:07:06;12.50;63.70
20492;DHT22;10404;51.468;6.762;2023-04-24T00:09:33;12.50;63.80
20492;DHT22;10404;51.468;6.762;2023-04-24T00:11:59;12.50;63.80
20492;DHT22;10404;51.468;6.762;2023-04-24T00:14:25;12.50;63.90
20492;DHT22;10404;51.468;6.762;2023-04-24T00:16:50;12.50;63.90
20492;DHT22;10404;51.468;6.762;2023-04-24T00:19:16;12.50;63.90
20492;DHT22;10404;51.468;6.762;2023-04-24T00:21:42;12.40;64.00
20492;DHT22;10404;51.468;6.762;2023-04-24T00:24:08;12.40;64.00
20492;DHT22;10404;51.468;6.762;2023-04-24T00:26:34;12.40;64.00
20492;DHT22;10404;51.468;6.762;2023-04-24T00:29:00;12.40;64.00
20492;DHT22;10404;51.468;6.762;2023-04-24T00:31:26;12.30;64.00
20492;DHT22;10404;51.468;6.762;2023-04-24T00:33:51;12.40;64.00
20492;DHT22;10404;51.468;6.762;2023-04-24T00:36:17;12.30;64.20
20492;DHT22;10404;51.468;6.762;2023-04-24T00:38:44;12.30;64.10
20492;DHT22;10404;51.468;6.762;2023-04-24T00:41:11;12.30;64.10
20492;DHT22;10404;51.468;6.762;2023-04-24T00:43:36;12.30;64.00
20492;DHT22;10404;51.468;6.762;2023-04-24T00:46:02;12.30;64.00
20492;DHT22;10404;51.468;6.762;2023-04-24T00:48:29;12.30;64.00
20492;DHT22;10404;51.468;6.762;2023-04-24T00:50:56;12.30;64.00
20492;DHT22;10404;51.468;6.762;2023-04-24T00:53:22;12.20;63.90
20492;DHT22;10404;51.468;6.762;2023-04-24T00:55:48;12.20;64.00
20492;DHT22;10404;51.468;6.762;2023-04-24T00:58:14;12.20;64.00
20492;DHT22;10404;51.468;6.762;2023-04-24T01:00:40;12.20;64.00
20492;DHT22;10404;51.468;6.762;2023-04-24T01:03:06;12.10;64.00
20492;DHT22;10404;51.468;6.762;2023-04-24T01:05:33;12.10;63.90
20492;DHT22;10404;51.468;6.762;2023-04-24T01:07:59;12.10;64.00
20492;DHT22;10404;51.468;6.762;2023-04-24T01:10:27;12.10;64.00
20492;DHT22;10404;51.468;6.762;2023-04-24T01:12:55;12.10;64.00
20492;DHT22;10404;51.468;6.762;2023-04-24T01:15:20;12.10;64.00
20492;DHT22;10404;51.468;6.762;2023-04-24T01:17:46;12.10;64.00
20492;DHT22;10404;51.468;6.762;2023-04-24T01:20:12;12.00;64.00
20492;DHT22;10404;51.468;6.762;2023-04-24T01:22:38;12.00;64.00
20492;DHT22;10404;51.468;6.762;2023-04-24T01:25:04;12.00;64.00
20492;DHT22;10404;51.468;6.762;2023-04-24T01:27:31;12.00;64.00
20492;DHT22;10404;51.468;6.762;2023-04-24T01:29:57;12.00;63.90
20492;DHT22;10404;51.468;6.762;2023-04-24T01:32:23;12.00;64.00
20492;DHT22;10404;51.468;6.762;2023-04-24T01:34:50;12.00;63.90
20492;DHT22;10404;51.468;6.762;2023-04-24T01:37:16;11.90;64.00
20492;DHT22;10404;51.468;6.762;2023-04-24T01:39:43;11.90;64.00
20492;DHT22;10404;51.468;6.762;2023-04-24T01:42:09;11.90;64.00
20492;DHT22;10404;51.468;6.762;2023-04-24T01:44:35;11.90;63.90
20492;DHT22;10404;51.468;6.762;2023-04-24T01:47:01;11.90;63.90
20492;DHT22;10404;51.468;6.762;2023-04-24T01:49:26;11.90;63.90
20492;DHT22;10404;51.468;6.762;2023-04-24T01:51:52;11.90;64.00
20492;DHT22;10404;51.468;6.762;2023-04-24T01:54:18;11.80;64.00
20492;DHT22;10404;51.468;6.762;2023-04-24T01:56:43;11.80;63.90
20492;DHT22;10404;51.468;6.762;2023-04-24T01:59:10;11.80;64.00
20492;DHT22;10404;51.468;6.762;2023-04-24T02:01:37;11.80;64.00
20492;DHT22;10404;51.468;6.762;2023-04-24T02:04:04;11.80;64.00
20492;DHT22;10404;51.468;6.762;2023-04-24T02:06:30;11.70;64.10
20492;DHT22;10404;51.468;6.762;2023-04-24T02:08:58;11.70;64.10
20492;DHT22;10404;51.468;6.762;2023-04-24T02:11:24;11.70;64.10
20492;DHT22;10404;51.468;6.762;2023-04-24T02:13:50;11.70;64.20
20492;DHT22;10404;51.468;6.762;2023-04-24T02:16:17;11.70;64.20
20492;DHT22;10404;51.468;6.762;2023-04-24T02:18:42;11.70;64.20
20492;DHT22;10404;51.468;6.762;2023-04-24T02:21:08;11.70;64.30
20492;DHT22;10404;51.468;6.762;2023-04-24T02:23:34;11.70;64.30
20492;DHT22;10404;51.468;6.762;2023-04-24T02:26:00;11.60;64.30
20492;DHT22;10404;51.468;6.762;2023-04-24T02:28:25;11.60;64.30
20492;DHT22;10404;51.468;6.762;2023-04-24T02:30:51;11.60;64.30
20492;DHT22;10404;51.468;6.762;2023-04-24T02:33:16;11.50;64.40
20492;DHT22;10404;51.468;6.762;2023-04-24T02:35:42;11.50;64.40
20492;DHT22;10404;51.468;6.762;2023-04-24T02:38:08;11.50;64.40
20492;DHT22;10404;51.468;6.762;2023-04-24T02:40:33;11.50;64.50
20492;DHT22;10404;51.468;6.762;2023-04-24T02:42:59;11.50;64.50
20492;DHT22;10404;51.468;6.762;2023-04-24T02:45:24;11.50;64.50
20492;DHT22;10404;51.468;6.762;2023-04-24T02:47:50;11.50;64.50
20492;DHT22;10404;51.468;6.762;2023-04-24T02:50:16;11.40;64.60
20492;DHT22;10404;51.468;6.762;2023-04-24T02:52:41;11.50;64.60
20492;DHT22;10404;51.468;6.762;2023-04-24T02:55:07;11.40;64.60
20492;DHT22;10404;51.468;6.762;2023-04-24T02:57:33;11.40;64.70
20492;DHT22;10404;51.468;6.762;2023-04-24T02:59:59;11.40;64.70
20492;DHT22;10404;51.468;6.762;2023-04-24T03:02:25;11.40;64.70
20492;DHT22;10404;51.468;6.762;2023-04-24T03:04:50;11.40;64.70
20492;DHT22;10404;51.468;6.762;2023-04-24T03:07:16;11.40;64.70
20492;DHT22;10404;51.468;6.762;2023-04-24T03:09:42;11.30;64.70
20492;DHT22;10404;51.468;6.762;2023-04-24T03:12:07;11.40;64.70
20492;DHT22;10404;51.468;6.762;2023-04-24T03:14:33;11.40;64.70
20492;DHT22;10404;51.468;6.762;2023-04-24T03:16:59;11.30;64.70
20492;DHT22;10404;51.468;6.762;2023-04-24T03:19:25;11.30;64.70
20492;DHT22;10404;51.468;6.762;2023-04-24T03:21:50;11.30;64.80
20492;DHT22;10404;51.468;6.762;2023-04-24T03:24:16;11.30;64.80
20492;DHT22;10404;51.468;6.762;2023-04-24T03:26:42;11.30;64.80
20492;DHT22;10404;51.468;6.762;2023-04-24T03:29:07;11.20;64.90
20492;DHT22;10404;51.468;6.762;2023-04-24T03:31:33;11.20;64.90
20492;DHT22;10404;51.468;6.762;2023-04-24T03:33:58;11.20;64.90
20492;DHT22;10404;51.468;6.762;2023-04-24T03:36:24;11.20;64.90
20492;DHT22;10404;51.468;6.762;2023-04-24T03:38:51;11.20;65.00
20492;DHT22;10404;51.468;6.762;2023-04-24T03:41:16;11.10;65.00
20492;DHT22;10404;51.468;6.762;2023-04-24T03:43:42;11.10;65.00
20492;DHT22;10404;51.468;6.762;2023-04-24T03:46:08;11.10;65.10
20492;DHT22;10404;51.468;6.762;2023-04-24T03:48:35;11.10;65.10
20492;DHT22;10404;51.468;6.762;2023-04-24T03:51:00;11.10;65.20
20492;DHT22;10404;51.468;6.762;2023-04-24T03:53:26;11.10;65.20
20492;DHT22;10404;51.468;6.762;2023-04-24T03:55:52;11.10;65.30
20492;DHT22;10404;51.468;6.762;2023-04-24T03:58:18;11.10;65.30
20492;DHT22;10404;51.468;6.762;2023-04-24T04:00:44;11.10;65.20
20492;DHT22;10404;51.468;6.762;2023-04-24T04:03:09;11.10;65.30
20492;DHT22;10404;51.468;6.762;2023-04-24T04:05:35;11.10;65.30
20492;DHT22;10404;51.468;6.762;2023-04-24T04:08:01;11.00;65.30
20492;DHT22;10404;51.468;6.762;2023-04-24T04:10:26;11.00;65.50
20492;DHT22;10404;51.468;6.762;2023-04-24T04:12:52;11.00;65.40
20492;DHT22;10404;51.468;6.762;2023-04-24T04:15:17;11.00;65.60
20492;DHT22;10404;51.468;6.762;2023-04-24T04:17:43;11.00;65.50
20492;DHT22;10404;51.468;6.762;2023-04-24T04:20:09;11.00;65.50
20492;DHT22;10404;51.468;6.762;2023-04-24T04:22:36;11.00;65.60
20492;DHT22;10404;51.468;6.762;2023-04-24T04:25:03;10.90;65.70
20492;DHT22;10404;51.468;6.762;2023-04-24T04:27:28;10.90;65.60
20492;DHT22;10404;51.468;6.762;2023-04-24T04:29:58;10.90;65.60
20492;DHT22;10404;51.468;6.762;2023-04-24T04:32:24;10.90;65.70
20492;DHT22;10404;51.468;6.762;2023-04-24T04:34:50;10.90;65.70
20492;DHT22;10404;51.468;6.762;2023-04-24T04:37:18;10.90;65.80
20492;DHT22;10404;51.468;6.762;2023-04-24T04:39:44;10.90;65.70
20492;DHT22;10404;51.468;6.762;2023-04-24T04:42:09;10.90;65.80
20492;DHT22;10404;51.468;6.762;2023-04-24T04:44:35;10.90;65.70
20492;DHT22;10404;51.468;6.762;2023-04-24T04:47:02;10.80;65.80
20492;DHT22;10404;51.468;6.762;2023-04-24T04:49:31;10.80;65.80
20492;DHT22;10404;51.468;6.762;2023-04-24T04:51:56;10.80;65.80
20492;DHT22;10404;51.468;6.762;2023-04-24T04:54:22;10.80;65.80
20492;DHT22;10404;51.468;6.762;2023-04-24T04:56:50;10.80;65.80
20492;DHT22;10404;51.468;6.762;2023-04-24T04:59:16;10.80;65.90
20492;DHT22;10404;51.468;6.762;2023-04-24T05:01:41;10.80;65.80
20492;DHT22;10404;51.468;6.762;2023-04-24T05:04:07;10.80;65.90
20492;DHT22;10404;51.468;6.762;2023-04-24T05:06:33;10.80;66.00
20492;DHT22;10404;51.468;6.762;2023-04-24T05:08:59;10.70;65.90
20492;DHT22;10404;51.468;6.762;2023-04-24T05:11:24;10.70;65.90
20492;DHT22;10404;51.468;6.762;2023-04-24T05:13:50;10.70;65.90
20492;DHT22;10404;51.468;6.762;2023-04-24T05:16:15;10.70;66.00
20492;DHT22;10404;51.468;6.762;2023-04-24T05:18:41;10.70;66.00
20492;DHT22;10404;51.468;6.762;2023-04-24T05:21:07;10.70;65.90
20492;DHT22;10404;51.468;6.762;2023-04-24T05:23:32;10.70;66.00
20492;DHT22;10404;51.468;6.762;2023-04-24T05:25:58;10.70;66.10
20492;DHT22;10404;51.468;6.762;2023-04-24T05:28:23;10.70;66.10
20492;DHT22;10404;51.468;6.762;2023-04-24T05:30:54;10.70;66.20
20492;DHT22;10404;51.468;6.762;2023-04-24T05:33:20;10.60;66.30
20492;DHT22;10404;51.468;6.762;2023-04-24T05:35:46;10.60;66.40
20492;DHT22;10404;51.468;6.762;2023-04-24T05:38:12;10.60;66.50
20492;DHT22;10404;51.468;6.762;2023-04-24T05:40:39;10.60;66.50
20492;DHT22;10404;51.468;6.762;2023-04-24T05:43:05;10.60;66.70
20492;DHT22;10404;51.468;6.762;2023-04-24T05:45:30;10.60;66.70
20492;DHT22;10404;51.468;6.762;2023-04-24T05:47:57;10.60;66.70
20492;DHT22;10404;51.468;6.762;2023-04-24T05:50:22;10.60;66.80
20492;DHT22;10404;51.468;6.762;2023-04-24T05:52:48;10.50;66.80
20492;DHT22;10404;51.468;6.762;2023-04-24T05:55:14;10.50;66.90
20492;DHT22;10404;51.468;6.762;2023-04-24T05:57:41;10.50;66.90
20492;DHT22;10404;51.468;6.762;2023-04-24T06:00:09;10.50;66.90
20492;DHT22;10404;51.468;6.762;2023-04-24T06:02:37;10.50;66.90
20492;DHT22;10404;51.468;6.762;2023-04-24T06:05:04;10.50;67.10
20492;DHT22;10404;51.468;6.762;2023-04-24T06:07:30;10.50;67.10
20492;DHT22;10404;51.468;6.762;2023-04-24T06:09:56;10.40;67.10
20492;DHT22;10404;51.468;6.762;2023-04-24T06:12:22;10.50;67.10
20492;DHT22;10404;51.468;6.762;2023-04-24T06:14:48;10.40;67.20
20492;DHT22;10404;51.468;6.762;2023-04-24T06:17:14;10.40;67.30
20492;DHT22;10404;51.468;6.762;2023-04-24T06:19:39;10.40;67.40
20492;DHT22;10404;51.468;6.762;2023-04-24T06:22:06;10.40;67.50
20492;DHT22;10404;51.468;6.762;2023-04-24T06:24:33;10.40;67.40
20492;DHT22;10404;51.468;6.762;2023-04-24T06:26:59;10.40;67.50
20492;DHT22;10404;51.468;6.762;2023-04-24T06:29:27;10.40;67.50
20492;DHT22;10404;51.468;6.762;2023-04-24T06:31:52;10.40;67.60
20492;DHT22;10404;51.468;6.762;2023-04-24T06:34:18;10.40;67.60
20492;DHT22;10404;51.468;6.762;2023-04-24T06:36:44;10.40;67.60
20492;DHT22;10404;51.468;6.762;2023-04-24T06:39:10;10.30;67.70
20492;DHT22;10404;51.468;6.762;2023-04-24T06:41:35;10.30;67.80
20492;DHT22;10404;51.468;6.762;2023-04-24T06:44:01;10.30;67.90
20492;DHT22;10404;51.468;6.762;2023-04-24T06:46:27;10.30;68.00
20492;DHT22;10404;51.468;6.762;2023-04-24T06:48:53;10.30;68.00
20492;DHT22;10404;51.468;6.762;2023-04-24T06:51:23;10.30;68.10
20492;DHT22;10404;51.468;6.762;2023-04-24T06:53:49;10.20;68.10
20492;DHT22;10404;51.468;6.762;2023-04-24T06:56:15;10.20;68.30
20492;DHT22;10404;51.468;6.762;2023-04-24T06:58:41;10.20;68.30
20492;DHT22;10404;51.468;6.762;2023-04-24T07:01:07;10.20;68.40
20492;DHT22;10404;51.468;6.762;2023-04-24T07:03:33;10.20;68.50
20492;DHT22;10404;51.468;6.762;2023-04-24T07:05:58;10.20;68.60
20492;DHT22;10404;51.468;6.762;2023-04-24T07:08:24;10.20;68.60
20492;DHT22;10404;51.468;6.762;2023-04-24T07:10:50;10.20;68.70
20492;DHT22;10404;51.468;6.762;2023-04-24T07:13:16;10.10;68.90
20492;DHT22;10404;51.468;6.762;2023-04-24T07:15:42;10.10;68.90
20492;DHT22;10404;51.468;6.762;2023-04-24T07:18:08;10.10;69.00
20492;DHT22;10404;51.468;6.762;2023-04-24T07:20:34;10.10;68.90
20492;DHT22;10404;51.468;6.762;2023-04-24T07:23:00;10.10;68.90
20492;DHT22;10404;51.468;6.762;2023-04-24T07:25:25;10.10;69.00
20492;DHT22;10404;51.468;6.762;2023-04-24T07:27:51;10.10;69.00
20492;DHT22;10404;51.468;6.762;2023-04-24T07:30:17;10.10;69.10
20492;DHT22;10404;51.468;6.762;2023-04-24T07:32:43;10.10;69.20
20492;DHT22;10404;51.468;6.762;2023-04-24T07:35:09;10.00;69.20
20492;DHT22;10404;51.468;6.762;2023-04-24T07:37:35;10.00;69.20
20492;DHT22;10404;51.468;6.762;2023-04-24T07:40:01;10.00;69.40
20492;DHT22;10404;51.468;6.762;2023-04-24T07:42:27;10.00;69.50
20492;DHT22;10404;51.468;6.762;2023-04-24T07:44:53;10.00;69.50
20492;DHT22;10404;51.468;6.762;2023-04-24T07:47:20;10.00;69.50
20492;DHT22;10404;51.468;6.762;2023-04-24T07:49:46;10.00;69.50
20492;DHT22;10404;51.468;6.762;2023-04-24T07:52:11;10.00;69.40
20492;DHT22;10404;51.468;6.762;2023-04-24T07:54:37;10.00;69.40
20492;DHT22;10404;51.468;6.762;2023-04-24T07:57:03;10.00;69.40
20492;DHT22;10404;51.468;6.762;2023-04-24T07:59:29;10.00;69.50
20492;DHT22;10404;51.468;6.762;2023-04-24T08:01:55;10.00;69.70
20492;DHT22;10404;51.468;6.762;2023-04-24T08:04:21;10.00;69.70
20492;DHT22;10404;51.468;6.762;2023-04-24T08:06:49;10.00;69.70
20492;DHT22;10404;51.468;6.762;2023-04-24T08:09:15;9.90;69.70
20492;DHT22;10404;51.468;6.762;2023-04-24T08:11:41;10.00;69.70
20492;DHT22;10404;51.468;6.762;2023-04-24T08:14:06;10.00;69.70
20492;DHT22;10404;51.468;6.762;2023-04-24T08:16:32;10.00;69.70
20492;DHT22;10404;51.468;6.762;2023-04-24T08:18:58;9.90;69.80
20492;DHT22;10404;51.468;6.762;2023-04-24T08:21:24;9.90;69.80
20492;DHT22;10404;51.468;6.762;2023-04-24T08:23:51;9.90;70.00
20492;DHT22;10404;51.468;6.762;2023-04-24T08:26:17;9.80;70.10
20492;DHT22;10404;51.468;6.762;2023-04-24T08:28:42;9.80;70.10
20492;DHT22;10404;51.468;6.762;2023-04-24T08:31:08;9.80;70.20
20492;DHT22;10404;51.468;6.762;2023-04-24T08:33:34;9.80;70.30
20492;DHT22;10404;51.468;6.762;2023-04-24T08:36:04;9.80;70.40
20492;DHT22;10404;51.468;6.762;2023-04-24T08:38:30;9.80;70.60
20492;DHT22;10404;51.468;6.762;2023-04-24T08:40:57;9.80;70.70
20492;DHT22;10404;51.468;6.762;2023-04-24T08:43:23;9.80;70.70
20492;DHT22;10404;51.468;6.762;2023-04-24T08:45:51;9.80;70.70
20492;DHT22;10404;51.468;6.762;2023-04-24T08:48:17;9.80;70.90
20492;DHT22;10404;51.468;6.762;2023-04-24T08:50:43;9.80;71.00
20492;DHT22;10404;51.468;6.762;2023-04-24T08:53:10;9.80;71.00
20492;DHT22;10404;51.468;6.762;2023-04-24T08:55:37;9.80;70.90
20492;DHT22;10404;51.468;6.762;2023-04-24T08:58:03;9.80;71.00
20492;DHT22;10404;51.468;6.762;2023-04-24T09:00:29;9.80;71.00
20492;DHT22;10404;51.468;6.762;2023-04-24T09:02:56;9.80;70.90
20492;DHT22;10404;51.468;6.762;2023-04-24T09:05:23;9.80;71.10
20492;DHT22;10404;51.468;6.762;2023-04-24T09:07:55;9.80;71.00
20492;DHT22;10404;51.468;6.762;2023-04-24T09:10:23;9.80;71.30
20492;DHT22;10404;51.468;6.762;2023-04-24T09:12:51;9.80;71.40
20492;DHT22;10404;51.468;6.762;2023-04-24T09:15:18;9.80;71.60
20492;DHT22;10404;51.468;6.762;2023-04-24T09:17:44;9.80;71.70
20492;DHT22;10404;51.468;6.762;2023-04-24T09:20:10;9.80;71.90
20492;DHT22;10404;51.468;6.762;2023-04-24T09:22:36;9.80;71.90
20492;DHT22;10404;51.468;6.762;2023-04-24T09:25:04;9.80;72.10
20492;DHT22;10404;51.468;6.762;2023-04-24T09:27:31;9.80;72.20
20492;DHT22;10404;51.468;6.762;2023-04-24T09:29:57;9.80;72.30
20492;DHT22;10404;51.468;6.762;2023-04-24T09:32:24;9.80;72.30
20492;DHT22;10404;51.468;6.762;2023-04-24T09:35:06;9.80;72.20
20492;DHT22;10404;51.468;6.762;2023-04-24T09:37:38;9.80;72.20
20492;DHT22;10404;51.468;6.762;2023-04-24T09:40:18;9.80;72.00
20492;DHT22;10404;51.468;6.762;2023-04-24T09:42:55;9.70;72.20
20492;DHT22;10404;51.468;6.762;2023-04-24T09:45:36;9.70;72.20
20492;DHT22;10404;51.468;6.762;2023-04-24T09:48:02;9.70;72.10
20492;DHT22;10404;51.468;6.762;2023-04-24T09:50:30;9.70;72.20
20492;DHT22;10404;51.468;6.762;2023-04-24T09:52:59;9.70;72.20
20492;DHT22;10404;51.468;6.762;2023-04-24T09:55:26;9.70;72.10
20492;DHT22;10404;51.468;6.762;2023-04-24T09:57:58;9.70;72.10
20492;DHT22;10404;51.468;6.762;2023-04-24T10:00:27;9.70;72.20
20492;DHT22;10404;51.468;6.762;2023-04-24T10:02:57;9.70;72.20
20492;DHT22;10404;51.468;6.762;2023-04-24T10:05:24;9.70;72.20
20492;DHT22;10404;51.468;6.762;2023-04-24T10:07:52;9.70;72.20
20492;DHT22;10404;51.468;6.762;2023-04-24T10:10:21;9.70;72.20
20492;DHT22;10404;51.468;6.762;2023-04-24T10:12:47;9.70;72.30
20492;DHT22;10404;51.468;6.762;2023-04-24T10:15:13;9.70;72.40
20492;DHT22;10404;51.468;6.762;2023-04-24T10:17:41;9.70;72.40
20492;DHT22;10404;51.468;6.762;2023-04-24T10:20:07;9.60;72.50
20492;DHT22;10404;51.468;6.762;2023-04-24T10:22:33;9.70;72.50
20492;DHT22;10404;51.468;6.762;2023-04-24T10:24:59;9.70;72.50
20492;DHT22;10404;51.468;6.762;2023-04-24T10:27:26;9.70;72.50
20492;DHT22;10404;51.468;6.762;2023-04-24T10:29:53;9.70;72.60
20492;DHT22;10404;51.468;6.762;2023-04-24T10:32:19;9.70;72.60
20492;DHT22;10404;51.468;6.762;2023-04-24T10:34:44;9.70;72.70
20492;DHT22;10404;51.468;6.762;2023-04-24T10:37:10;9.70;72.70
20492;DHT22;10404;51.468;6.762;2023-04-24T10:39:36;9.70;72.60
20492;DHT22;10404;51.468;6.762;2023-04-24T10:42:14;9.70;72.60
20492;DHT22;10404;51.468;6.762;2023-04-24T10:44:41;9.70;72.60
20492;DHT22;10404;51.468;6.762;2023-04-24T10:47:12;9.70;72.60
20492;DHT22;10404;51.468;6.762;2023-04-24T10:49:39;9.70;72.60
20492;DHT22;10404;51.468;6.762;2023-04-24T10:52:05;9.70;72.60
20492;DHT22;10404;51.468;6.762;2023-04-24T10:54:36;9.70;72.70
20492;DHT22;10404;51.468;6.762;2023-04-24T11:00:18;9.70;72.60
20492;DHT22;10404;51.468;6.762;2023-04-24T11:02:46;9.80;72.50
20492;DHT22;10404;51.468;6.762;2023-04-24T11:05:19;9.80;72.50
20492;DHT22;10404;51.468;6.762;2023-04-24T11:11:11;9.80;72.50
20492;DHT22;10404;51.468;6.762;2023-04-24T11:16:51;9.90;73.20
20492;DHT22;10404;51.468;6.762;2023-04-24T11:19:18;10.00;73.10
20492;DHT22;10404;51.468;6.762;2023-04-24T11:22:02;10.00;72.90
20492;DHT22;10404;51.468;6.762;2023-04-24T11:24:48;10.00;72.80
20492;DHT22;10404;51.468;6.762;2023-04-24T11:27:16;10.00;72.70
20492;DHT22;10404;51.468;6.762;2023-04-24T11:34:54;10.00;72.50
20492;DHT22;10404;51.468;6.762;2023-04-24T11:37:21;10.00;72.20
20492;DHT22;10404;51.468;6.762;2023-04-24T11:39:47;10.00;72.10
20492;DHT22;10404;51.468;6.762;2023-04-24T11:42:15;10.00;71.80
20492;DHT22;10404;51.468;6.762;2023-04-24T11:44:42;10.00;71.70
20492;DHT22;10404;51.468;6.762;2023-04-24T11:47:08;10.00;71.60
20492;DHT22;10404;51.468;6.762;2023-04-24T11:49:36;10.00;71.50
20492;DHT22;10404;51.468;6.762;2023-04-24T11:52:04;10.00;71.30
20492;DHT22;10404;51.468;6.762;2023-04-24T11:54:30;10.10;71.20
20492;DHT22;10404;51.468;6.762;2023-04-24T11:56:56;10.10;71.10
20492;DHT22;10404;51.468;6.762;2023-04-24T11:59:22;10.10;71.00
20492;DHT22;10404;51.468;6.762;2023-04-24T12:01:48;10.10;71.00
20492;DHT22;10404;51.468;6.762;2023-04-24T12:04:16;10.10;71.10
20492;DHT22;10404;51.468;6.762;2023-04-24T12:07:03;10.10;71.10
20492;DHT22;10404;51.468;6.762;2023-04-24T12:09:44;10.20;71.10
20492;DHT22;10404;51.468;6.762;2023-04-24T12:12:11;10.20;71.20
20492;DHT22;10404;51.468;6.762;2023-04-24T12:14:47;10.20;71.10
20492;DHT22;10404;51.468;6.762;2023-04-24T12:17:12;10.20;71.00
20492;DHT22;10404;51.468;6.762;2023-04-24T12:19:45;10.30;70.80
20492;DHT22;10404;51.468;6.762;2023-04-24T12:22:11;10.30;70.60
20492;DHT22;10404;51.468;6.762;2023-04-24T12:24:56;10.30;70.40
20492;DHT22;10404;51.468;6.762;2023-04-24T12:27:22;10.30;70.50
20492;DHT22;10404;51.468;6.762;2023-04-24T12:29:56;10.30;70.40
20492;DHT22;10404;51.468;6.762;2023-04-24T12:32:22;10.30;70.30
20492;DHT22;10404;51.468;6.762;2023-04-24T12:34:49;10.30;70.10
20492;DHT22;10404;51.468;6.762;2023-04-24T12:37:16;10.30;70.00
20492;DHT22;10404;51.468;6.762;2023-04-24T12:40:08;10.30;70.00
20492;DHT22;10404;51.468;6.762;2023-04-24T12:42:35;10.30;69.90
20492;DHT22;10404;51.468;6.762;2023-04-24T12:45:06;10.40;69.80
20492;DHT22;10404;51.468;6.762;2023-04-24T12:47:32;10.40;69.80
20492;DHT22;10404;51.468;6.762;2023-04-24T12:49:59;10.40;69.50
20492;DHT22;10404;51.468;6.762;2023-04-24T12:52:25;10.40;69.50
20492;DHT22;10404;51.468;6.762;2023-04-24T12:54:57;10.40;69.40
20492;DHT22;10404;51.468;6.762;2023-04-24T12:57:23;10.40;69.20
20492;DHT22;10404;51.468;6.762;2023-04-24T12:59:49;10.50;69.10
20492;DHT22;10404;51.468;6.762;2023-04-24T13:02:16;10.50;69.20
20492;DHT22;10404;51.468;6.762;2023-04-24T13:04:46;10.50;69.10
20492;DHT22;10404;51.468;6.762;2023-04-24T13:07:13;10.50;69.20
20492;DHT22;10404;51.468;6.762;2023-04-24T13:09:39;10.60;69.00
20492;DHT22;10404;51.468;6.762;2023-04-24T13:12:05;10.60;68.90
20492;DHT22;10404;51.468;6.762;2023-04-24T13:14:31;10.60;68.70
20492;DHT22;10404;51.468;6.762;2023-04-24T13:16:57;10.60;68.70
20492;DHT22;10404;51.468;6.762;2023-04-24T13:19:27;10.70;68.60
20492;DHT22;10404;51.468;6.762;2023-04-24T13:21:54;10.70;68.60
20492;DHT22;10404;51.468;6.762;2023-04-24T13:24:21;10.70;68.60
20492;DHT22;10404;51.468;6.762;2023-04-24T13:26:50;10.80;68.50
20492;DHT22;10404;51.468;6.762;2023-04-24T13:29:17;10.80;68.40
20492;DHT22;10404;51.468;6.762;2023-04-24T13:31:42;10.80;68.20
20492;DHT22;10404;51.468;6.762;2023-04-24T13:34:08;10.80;68.20
20492;DHT22;10404;51.468;6.762;2023-04-24T13:36:34;10.90;68.00
20492;DHT22;10404;51.468;6.762;2023-04-24T13:39:00;10.90;67.80
20492;DHT22;10404;51.468;6.762;2023-04-24T13:41:26;10.90;67.80
20492;DHT22;10404;51.468;6.762;2023-04-24T13:43:52;10.90;67.80
20492;DHT22;10404;51.468;6.762;2023-04-24T13:46:17;10.90;67.50
20492;DHT22;10404;51.468;6.762;2023-04-24T13:48:43;11.00;67.50
20492;DHT22;10404;51.468;6.762;2023-04-24T13:51:09;11.00;67.50
20492;DHT22;10404;51.468;6.762;2023-04-24T13:53:35;11.00;67.40
20492;DHT22;10404;51.468;6.762;2023-04-24T13:56:04;11.00;67.40
20492;DHT22;10404;51.468;6.762;2023-04-24T13:58:29;11.00;67.40
20492;DHT22;10404;51.468;6.762;2023-04-24T14:00:55;11.10;67.30
20492;DHT22;10404;51.468;6.762;2023-04-24T14:03:21;11.10;67.20
20492;DHT22;10404;51.468;6.762;2023-04-24T14:05:46;11.10;67.10
20492;DHT22;10404;51.468;6.762;2023-04-24T14:08:12;11.20;67.10
20492;DHT22;10404;51.468;6.762;2023-04-24T14:10:37;11.20;67.00
20492;DHT22;10404;51.468;6.762;2023-04-24T14:13:03;11.30;66.80
20492;DHT22;10404;51.468;6.762;2023-04-24T14:15:29;11.30;66.70
20492;DHT22;10404;51.468;6.762;2023-04-24T14:17:55;11.30;66.70
20492;DHT22;10404;51.468;6.762;2023-04-24T14:20:20;11.40;66.70
20492;DHT22;10404;51.468;6.762;2023-04-24T14:22:46;11.40;66.60
20492;DHT22;10404;51.468;6.762;2023-04-24T14:25:12;11.40;66.50
20492;DHT22;10404;51.468;6.762;2023-04-24T14:27:37;11.40;66.50
20492;DHT22;10404;51.468;6.762;2023-04-24T14:30:04;11.40;66.20
20492;DHT22;10404;51.468;6.762;2023-04-24T14:32:30;11.50;65.80
20492;DHT22;10404;51.468;6.762;2023-04-24T14:34:56;11.50;65.70
20492;DHT22;10404;51.468;6.762;2023-04-24T14:37:21;11.50;65.50
20492;DHT22;10404;51.468;6.762;2023-04-24T14:39:47;11.50;65.50
20492;DHT22;10404;51.468;6.762;2023-04-24T14:42:12;11.50;65.50
20492;DHT22;10404;51.468;6.762;2023-04-24T14:44:39;11.50;65.60
20492;DHT22;10404;51.468;6.762;2023-04-24T14:47:05;11.50;65.50
20492;DHT22;10404;51.468;6.762;2023-04-24T14:49:30;11.50;65.70
20492;DHT22;10404;51.468;6.762;2023-04-24T14:51:56;11.50;65.90
20492;DHT22;10404;51.468;6.762;2023-04-24T14:54:22;11.50;65.90
20492;DHT22;10404;51.468;6.762;2023-04-24T14:56:49;11.50;65.90
20492;DHT22;10404;51.468;6.762;2023-04-24T14:59:15;11.50;66.10
20492;DHT22;10404;51.468;6.762;2023-04-24T15:01:40;11.50;66.20
20492;DHT22;10404;51.468;6.762;2023-04-24T15:04:06;11.50;66.30
20492;DHT22;10404;51.468;6.762;2023-04-24T15:06:31;11.50;66.50
20492;DHT22;10404;51.468;6.762;2023-04-24T15:08:58;11.50;66.60
20492;DHT22;10404;51.468;6.762;2023-04-24T15:11:24;11.50;66.60
20492;DHT22;10404;51.468;6.762;2023-04-24T15:13:49;11.50;66.60
20492;DHT22;10404;51.468;6.762;2023-04-24T15:16:15;11.50;66.60
20492;DHT22;10404;51.468;6.762;2023-04-24T15:18:41;11.50;66.70
20492;DHT22;10404;51.468;6.762;2023-04-24T15:21:07;11.50;66.70
20492;DHT22;10404;51.468;6.762;2023-04-24T15:23:32;11.50;66.70
20492;DHT22;10404;51.468;6.762;2023-04-24T15:25:58;11.50;66.70
20492;DHT22;10404;51.468;6.762;2023-04-24T15:28:24;11.50;66.60
20492;DHT22;10404;51.468;6.762;2023-04-24T15:30:50;11.50;66.50
20492;DHT22;10404;51.468;6.762;2023-04-24T15:33:16;11.50;66.30
20492;DHT22;10404;51.468;6.762;2023-04-24T15:35:42;11.50;66.10
20492;DHT22;10404;51.468;6.762;2023-04-24T15:38:07;11.50;66.10
20492;DHT22;10404;51.468;6.762;2023-04-24T15:40:33;11.50;65.80
20492;DHT22;10404;51.468;6.762;2023-04-24T15:42:59;11.50;65.80
20492;DHT22;10404;51.468;6.762;2023-04-24T15:45:25;11.50;65.50